Terminal Aerodrome Forecast
Issued by NWS Charleston, WV

Current Version | Previous Version | Text Only | Print | Product List | Glossary Off
Versions: 1 2 3 4 5 6 7 8 9 10 11 12 13 14 15 16 17 18 19 20 21 22 23 24 25 26 27

000
FTUS41 KRLX 281100
TAFCRW
TAF
KCRW 281120Z 2812/2912 19004KT P6SM SCT140 BKN250
     FM281300 21008KT P6SM SCT120
     FM281600 22012G23KT P6SM SCT040
     FM282300 22011G19KT P6SM BKN050
     FM290100 24005KT 5SM BR VCTS OVC035CB
     FM290400 26004KT 3SM SHRA BR OVC025=

USA.gov is the U.S. government's official web portal to all federal, state and local government web resources and services.